sensor_id;sensor_type;location;lat;lon;timestamp;temperature;humidity
66752;SHT31;53663;42.676;23.238;2023-04-24T00:02:13;10.30;66.14
66752;SHT31;53663;42.676;23.238;2023-04-24T00:04:38;10.42;66.82
66752;SHT31;53663;42.676;23.238;2023-04-24T00:07:06;10.55;66.41
66752;SHT31;53663;42.676;23.238;2023-04-24T00:09:32;10.65;66.09
66752;SHT31;53663;42.676;23.238;2023-04-24T00:11:58;10.58;66.13
66752;SHT31;53663;42.676;23.238;2023-04-24T00:14:24;10.58;65.44
66752;SHT31;53663;42.676;23.238;2023-04-24T00:16:49;10.38;66.18
66752;SHT31;53663;42.676;23.238;2023-04-24T00:19:15;10.16;67.69
66752;SHT31;53663;42.676;23.238;2023-04-24T00:21:41;10.16;67.71
66752;SHT31;53663;42.676;23.238;2023-04-24T00:24:07;10.11;67.42
66752;SHT31;53663;42.676;23.238;2023-04-24T00:26:34;10.03;67.69
66752;SHT31;53663;42.676;23.238;2023-04-24T00:29:00;10.04;67.57
66752;SHT31;53663;42.676;23.238;2023-04-24T00:31:26;9.99;68.02
66752;SHT31;53663;42.676;23.238;2023-04-24T00:33:51;10.18;67.09
66752;SHT31;53663;42.676;23.238;2023-04-24T00:36:17;10.21;67.64
66752;SHT31;53663;42.676;23.238;2023-04-24T00:38:44;10.18;68.18
66752;SHT31;53663;42.676;23.238;2023-04-24T00:41:10;10.34;67.16
66752;SHT31;53663;42.676;23.238;2023-04-24T00:43:36;10.33;67.37
66752;SHT31;53663;42.676;23.238;2023-04-24T00:46:02;10.36;67.36
66752;SHT31;53663;42.676;23.238;2023-04-24T00:48:27;10.42;67.00
66752;SHT31;53663;42.676;23.238;2023-04-24T00:50:53;10.36;66.40
66752;SHT31;53663;42.676;23.238;2023-04-24T00:53:19;10.55;65.84
66752;SHT31;53663;42.676;23.238;2023-04-24T00:55:45;10.27;66.48
66752;SHT31;53663;42.676;23.238;2023-04-24T00:58:12;10.55;67.97
66752;SHT31;53663;42.676;23.238;2023-04-24T01:00:38;10.54;70.04
66752;SHT31;53663;42.676;23.238;2023-04-24T01:03:04;10.64;72.44
66752;SHT31;53663;42.676;23.238;2023-04-24T01:05:32;10.76;72.00
66752;SHT31;53663;42.676;23.238;2023-04-24T01:07:58;10.72;73.62
66752;SHT31;53663;42.676;23.238;2023-04-24T01:10:25;10.64;73.99
66752;SHT31;53663;42.676;23.238;2023-04-24T01:12:52;10.65;75.47
66752;SHT31;53663;42.676;23.238;2023-04-24T01:15:18;10.57;75.53
66752;SHT31;53663;42.676;23.238;2023-04-24T01:17:45;10.20;74.48
66752;SHT31;53663;42.676;23.238;2023-04-24T01:20:13;10.36;77.01
66752;SHT31;53663;42.676;23.238;2023-04-24T01:22:40;10.24;74.35
66752;SHT31;53663;42.676;23.238;2023-04-24T01:25:06;10.06;76.04
66752;SHT31;53663;42.676;23.238;2023-04-24T01:27:32;10.11;76.01
66752;SHT31;53663;42.676;23.238;2023-04-24T01:29:58;10.36;74.04
66752;SHT31;53663;42.676;23.238;2023-04-24T01:32:24;10.07;74.80
66752;SHT31;53663;42.676;23.238;2023-04-24T01:34:50;9.62;73.19
66752;SHT31;53663;42.676;23.238;2023-04-24T01:37:16;9.70;71.98
66752;SHT31;53663;42.676;23.238;2023-04-24T01:39:43;9.87;71.67
66752;SHT31;53663;42.676;23.238;2023-04-24T01:42:09;9.82;71.38
66752;SHT31;53663;42.676;23.238;2023-04-24T01:44:34;9.85;73.35
66752;SHT31;53663;42.676;23.238;2023-04-24T01:47:02;9.58;74.33
66752;SHT31;53663;42.676;23.238;2023-04-24T01:49:29;9.58;73.85
66752;SHT31;53663;42.676;23.238;2023-04-24T01:51:55;9.49;74.53
66752;SHT31;53663;42.676;23.238;2023-04-24T01:54:21;9.59;74.91
66752;SHT31;53663;42.676;23.238;2023-04-24T01:56:46;9.66;73.42
66752;SHT31;53663;42.676;23.238;2023-04-24T01:59:12;9.56;73.79
66752;SHT31;53663;42.676;23.238;2023-04-24T02:01:38;9.45;73.92
66752;SHT31;53663;42.676;23.238;2023-04-24T02:04:05;9.46;73.94
66752;SHT31;53663;42.676;23.238;2023-04-24T02:06:30;9.52;73.27
66752;SHT31;53663;42.676;23.238;2023-04-24T02:08:57;9.60;73.60
66752;SHT31;53663;42.676;23.238;2023-04-24T02:11:23;9.46;75.10
66752;SHT31;53663;42.676;23.238;2023-04-24T02:13:50;9.38;74.99
66752;SHT31;53663;42.676;23.238;2023-04-24T02:16:17;9.32;75.21
66752;SHT31;53663;42.676;23.238;2023-04-24T02:18:42;9.30;75.39
66752;SHT31;53663;42.676;23.238;2023-04-24T02:21:08;9.22;74.86
66752;SHT31;53663;42.676;23.238;2023-04-24T02:23:34;9.28;74.94
66752;SHT31;53663;42.676;23.238;2023-04-24T02:26:00;9.11;75.50
66752;SHT31;53663;42.676;23.238;2023-04-24T02:28:25;9.11;75.52
66752;SHT31;53663;42.676;23.238;2023-04-24T02:30:51;9.14;75.33
66752;SHT31;53663;42.676;23.238;2023-04-24T02:33:16;9.17;75.56
66752;SHT31;53663;42.676;23.238;2023-04-24T02:35:42;9.17;74.97
66752;SHT31;53663;42.676;23.238;2023-04-24T02:38:07;9.12;76.07
66752;SHT31;53663;42.676;23.238;2023-04-24T02:40:35;9.03;76.68
66752;SHT31;53663;42.676;23.238;2023-04-24T02:43:00;8.91;76.78
66752;SHT31;53663;42.676;23.238;2023-04-24T02:45:26;8.72;76.90
66752;SHT31;53663;42.676;23.238;2023-04-24T02:47:52;8.77;76.38
66752;SHT31;53663;42.676;23.238;2023-04-24T02:50:18;8.79;76.34
66752;SHT31;53663;42.676;23.238;2023-04-24T02:52:43;8.76;75.96
66752;SHT31;53663;42.676;23.238;2023-04-24T02:55:09;8.81;76.62
66752;SHT31;53663;42.676;23.238;2023-04-24T02:57:35;8.81;75.86
66752;SHT31;53663;42.676;23.238;2023-04-24T03:00:00;8.83;76.29
66752;SHT31;53663;42.676;23.238;2023-04-24T03:02:26;8.70;76.03
66752;SHT31;53663;42.676;23.238;2023-04-24T03:04:51;8.67;75.36
66752;SHT31;53663;42.676;23.238;2023-04-24T03:07:17;8.69;75.11
66752;SHT31;53663;42.676;23.238;2023-04-24T03:09:46;8.73;74.82
66752;SHT31;53663;42.676;23.238;2023-04-24T03:12:14;8.49;75.19
66752;SHT31;53663;42.676;23.238;2023-04-24T03:14:39;8.53;75.11
66752;SHT31;53663;42.676;23.238;2023-04-24T03:17:05;8.50;74.69
66752;SHT31;53663;42.676;23.238;2023-04-24T03:19:30;8.45;76.16
66752;SHT31;53663;42.676;23.238;2023-04-24T03:22:02;8.52;75.54
66752;SHT31;53663;42.676;23.238;2023-04-24T03:24:29;8.46;75.18
66752;SHT31;53663;42.676;23.238;2023-04-24T03:26:56;8.04;76.62
66752;SHT31;53663;42.676;23.238;2023-04-24T03:29:45;8.36;75.60
66752;SHT31;53663;42.676;23.238;2023-04-24T03:32:11;8.35;76.10
66752;SHT31;53663;42.676;23.238;2023-04-24T03:34:37;8.35;75.72
66752;SHT31;53663;42.676;23.238;2023-04-24T03:37:03;8.26;76.54
66752;SHT31;53663;42.676;23.238;2023-04-24T03:39:30;8.56;75.54
66752;SHT31;53663;42.676;23.238;2023-04-24T03:41:56;8.56;75.67
66752;SHT31;53663;42.676;23.238;2023-04-24T03:44:29;8.57;75.97
66752;SHT31;53663;42.676;23.238;2023-04-24T03:46:54;8.63;76.09
66752;SHT31;53663;42.676;23.238;2023-04-24T03:49:22;8.63;75.89
66752;SHT31;53663;42.676;23.238;2023-04-24T03:51:48;8.74;75.44
66752;SHT31;53663;42.676;23.238;2023-04-24T03:54:19;8.84;75.74
66752;SHT31;53663;42.676;23.238;2023-04-24T03:56:45;8.88;75.34
66752;SHT31;53663;42.676;23.238;2023-04-24T03:59:10;9.01;74.49
66752;SHT31;53663;42.676;23.238;2023-04-24T04:01:38;9.01;74.21
66752;SHT31;53663;42.676;23.238;2023-04-24T04:04:10;9.22;73.41
66752;SHT31;53663;42.676;23.238;2023-04-24T04:06:37;9.46;71.30
66752;SHT31;53663;42.676;23.238;2023-04-24T04:09:03;9.43;72.19
66752;SHT31;53663;42.676;23.238;2023-04-24T04:11:29;9.46;71.31
66752;SHT31;53663;42.676;23.238;2023-04-24T04:13:55;9.41;71.54
66752;SHT31;53663;42.676;23.238;2023-04-24T04:16:22;9.60;70.32
66752;SHT31;53663;42.676;23.238;2023-04-24T04:18:50;9.43;71.67
66752;SHT31;53663;42.676;23.238;2023-04-24T04:21:16;9.58;72.31
66752;SHT31;53663;42.676;23.238;2023-04-24T04:23:42;9.38;72.31
66752;SHT31;53663;42.676;23.238;2023-04-24T04:26:14;9.51;73.23
66752;SHT31;53663;42.676;23.238;2023-04-24T04:29:01;9.73;71.15
66752;SHT31;53663;42.676;23.238;2023-04-24T04:31:29;9.76;71.82
66752;SHT31;53663;42.676;23.238;2023-04-24T04:33:57;9.91;71.15
66752;SHT31;53663;42.676;23.238;2023-04-24T04:36:23;9.87;70.32
66752;SHT31;53663;42.676;23.238;2023-04-24T04:38:55;9.78;69.72
66752;SHT31;53663;42.676;23.238;2023-04-24T04:41:41;9.85;69.48
66752;SHT31;53663;42.676;23.238;2023-04-24T04:44:09;10.10;68.00
66752;SHT31;53663;42.676;23.238;2023-04-24T04:46:35;10.21;68.16
66752;SHT31;53663;42.676;23.238;2023-04-24T04:49:19;10.25;67.59
66752;SHT31;53663;42.676;23.238;2023-04-24T04:51:47;10.42;66.60
66752;SHT31;53663;42.676;23.238;2023-04-24T04:54:12;10.45;66.50
66752;SHT31;53663;42.676;23.238;2023-04-24T04:56:38;10.57;66.58
66752;SHT31;53663;42.676;23.238;2023-04-24T04:59:03;10.76;65.20
66752;SHT31;53663;42.676;23.238;2023-04-24T05:01:29;10.79;64.72
66752;SHT31;53663;42.676;23.238;2023-04-24T05:03:55;10.71;66.01
66752;SHT31;53663;42.676;23.238;2023-04-24T05:06:20;10.72;65.58
66752;SHT31;53663;42.676;23.238;2023-04-24T05:08:46;10.37;65.71
66752;SHT31;53663;42.676;23.238;2023-04-24T05:11:24;10.37;65.12
66752;SHT31;53663;42.676;23.238;2023-04-24T05:13:49;10.44;65.46
66752;SHT31;53663;42.676;23.238;2023-04-24T05:16:18;10.54;65.49
66752;SHT31;53663;42.676;23.238;2023-04-24T05:18:44;10.58;66.08
66752;SHT31;53663;42.676;23.238;2023-04-24T05:21:13;10.95;64.40
66752;SHT31;53663;42.676;23.238;2023-04-24T05:23:41;11.03;64.25
66752;SHT31;53663;42.676;23.238;2023-04-24T05:26:06;11.33;63.38
66752;SHT31;53663;42.676;23.238;2023-04-24T05:28:32;11.16;62.64
66752;SHT31;53663;42.676;23.238;2023-04-24T05:31:05;10.91;63.33
66752;SHT31;53663;42.676;23.238;2023-04-24T05:33:32;11.22;63.03
66752;SHT31;53663;42.676;23.238;2023-04-24T05:35:57;11.67;61.14
66752;SHT31;53663;42.676;23.238;2023-04-24T05:38:23;13.14;57.38
66752;SHT31;53663;42.676;23.238;2023-04-24T05:40:49;12.77;56.53
66752;SHT31;53663;42.676;23.238;2023-04-24T05:43:14;12.78;56.84
66752;SHT31;53663;42.676;23.238;2023-04-24T05:45:40;13.55;55.31
66752;SHT31;53663;42.676;23.238;2023-04-24T05:48:05;15.11;51.77
66752;SHT31;53663;42.676;23.238;2023-04-24T05:50:32;15.66;49.25
66752;SHT31;53663;42.676;23.238;2023-04-24T05:52:57;16.46;47.03
66752;SHT31;53663;42.676;23.238;2023-04-24T05:55:30;17.25;45.54
66752;SHT31;53663;42.676;23.238;2023-04-24T05:57:56;18.71;43.69
66752;SHT31;53663;42.676;23.238;2023-04-24T06:00:23;19.72;41.37
66752;SHT31;53663;42.676;23.238;2023-04-24T06:02:57;21.18;37.64
66752;SHT31;53663;42.676;23.238;2023-04-24T06:05:24;21.95;34.53
66752;SHT31;53663;42.676;23.238;2023-04-24T06:07:52;22.33;33.67
66752;SHT31;53663;42.676;23.238;2023-04-24T06:10:19;20.96;35.34
66752;SHT31;53663;42.676;23.238;2023-04-24T06:12:45;20.55;35.84
66752;SHT31;53663;42.676;23.238;2023-04-24T06:15:15;20.31;37.05
66752;SHT31;53663;42.676;23.238;2023-04-24T06:17:50;19.86;38.86
66752;SHT31;53663;42.676;23.238;2023-04-24T06:20:16;20.25;38.53
66752;SHT31;53663;42.676;23.238;2023-04-24T06:22:42;21.65;35.79
66752;SHT31;53663;42.676;23.238;2023-04-24T06:25:09;22.18;34.86
66752;SHT31;53663;42.676;23.238;2023-04-24T06:27:35;23.00;33.09
66752;SHT31;53663;42.676;23.238;2023-04-24T06:30:00;23.46;32.02
66752;SHT31;53663;42.676;23.238;2023-04-24T06:32:26;22.12;35.45
66752;SHT31;53663;42.676;23.238;2023-04-24T06:34:52;20.65;37.16
66752;SHT31;53663;42.676;23.238;2023-04-24T06:37:22;21.02;37.94
66752;SHT31;53663;42.676;23.238;2023-04-24T06:39:47;20.41;38.65
66752;SHT31;53663;42.676;23.238;2023-04-24T06:42:13;20.28;38.91
66752;SHT31;53663;42.676;23.238;2023-04-24T06:44:40;22.02;36.58
66752;SHT31;53663;42.676;23.238;2023-04-24T06:47:09;22.47;35.44
66752;SHT31;53663;42.676;23.238;2023-04-24T06:49:38;23.56;32.30
66752;SHT31;53663;42.676;23.238;2023-04-24T06:52:03;24.32;31.70
66752;SHT31;53663;42.676;23.238;2023-04-24T06:54:30;24.75;30.98
66752;SHT31;53663;42.676;23.238;2023-04-24T06:56:56;25.06;30.82
66752;SHT31;53663;42.676;23.238;2023-04-24T06:59:23;23.52;33.55
66752;SHT31;53663;42.676;23.238;2023-04-24T07:01:49;24.71;31.57
66752;SHT31;53663;42.676;23.238;2023-04-24T07:04:15;24.93;29.60
66752;SHT31;53663;42.676;23.238;2023-04-24T07:06:40;25.02;31.24
66752;SHT31;53663;42.676;23.238;2023-04-24T07:09:06;25.23;30.09
66752;SHT31;53663;42.676;23.238;2023-04-24T07:11:31;23.37;32.30
66752;SHT31;53663;42.676;23.238;2023-04-24T07:13:58;24.27;31.75
66752;SHT31;53663;42.676;23.238;2023-04-24T07:16:23;23.14;33.84
66752;SHT31;53663;42.676;23.238;2023-04-24T07:18:49;23.10;33.66
66752;SHT31;53663;42.676;23.238;2023-04-24T07:21:14;23.42;32.59
66752;SHT31;53663;42.676;23.238;2023-04-24T07:23:40;23.49;32.10
66752;SHT31;53663;42.676;23.238;2023-04-24T07:26:06;22.36;34.54
66752;SHT31;53663;42.676;23.238;2023-04-24T07:28:32;22.06;34.47
66752;SHT31;53663;42.676;23.238;2023-04-24T07:30:58;21.87;36.33
66752;SHT31;53663;42.676;23.238;2023-04-24T07:33:25;20.95;36.67
66752;SHT31;53663;42.676;23.238;2023-04-24T07:35:51;20.48;36.95
66752;SHT31;53663;42.676;23.238;2023-04-24T07:38:17;20.33;38.29
66752;SHT31;53663;42.676;23.238;2023-04-24T07:40:45;20.13;38.02
66752;SHT31;53663;42.676;23.238;2023-04-24T07:43:11;20.28;38.20
66752;SHT31;53663;42.676;23.238;2023-04-24T07:45:36;20.37;38.01
66752;SHT31;53663;42.676;23.238;2023-04-24T07:48:03;19.89;39.40
66752;SHT31;53663;42.676;23.238;2023-04-24T07:50:28;20.01;38.95
66752;SHT31;53663;42.676;23.238;2023-04-24T07:52:54;20.14;38.37
66752;SHT31;53663;42.676;23.238;2023-04-24T07:55:20;20.33;38.66
66752;SHT31;53663;42.676;23.238;2023-04-24T07:57:45;19.31;41.90
66752;SHT31;53663;42.676;23.238;2023-04-24T08:00:11;19.94;39.33
66752;SHT31;53663;42.676;23.238;2023-04-24T08:02:37;20.38;37.83
66752;SHT31;53663;42.676;23.238;2023-04-24T08:05:02;20.25;37.80
66752;SHT31;53663;42.676;23.238;2023-04-24T08:07:28;19.31;40.93
66752;SHT31;53663;42.676;23.238;2023-04-24T08:09:54;19.92;39.63
66752;SHT31;53663;42.676;23.238;2023-04-24T08:12:19;20.23;38.57
66752;SHT31;53663;42.676;23.238;2023-04-24T08:14:45;20.41;39.70
66752;SHT31;53663;42.676;23.238;2023-04-24T08:17:11;20.31;39.36
66752;SHT31;53663;42.676;23.238;2023-04-24T08:19:36;20.85;37.98
66752;SHT31;53663;42.676;23.238;2023-04-24T08:22:02;21.44;39.55
66752;SHT31;53663;42.676;23.238;2023-04-24T08:24:29;21.70;36.73
66752;SHT31;53663;42.676;23.238;2023-04-24T08:26:54;21.62;37.09
66752;SHT31;53663;42.676;23.238;2023-04-24T08:29:21;22.01;37.24
66752;SHT31;53663;42.676;23.238;2023-04-24T08:31:47;22.28;35.51
66752;SHT31;53663;42.676;23.238;2023-04-24T08:34:12;22.26;36.13
66752;SHT31;53663;42.676;23.238;2023-04-24T08:36:38;22.63;35.91
66752;SHT31;53663;42.676;23.238;2023-04-24T08:39:06;22.52;34.77
66752;SHT31;53663;42.676;23.238;2023-04-24T08:41:33;22.78;34.80
66752;SHT31;53663;42.676;23.238;2023-04-24T08:44:01;22.70;35.10
66752;SHT31;53663;42.676;23.238;2023-04-24T08:46:27;22.19;37.55
66752;SHT31;53663;42.676;23.238;2023-04-24T08:48:53;21.75;35.73
66752;SHT31;53663;42.676;23.238;2023-04-24T08:51:19;20.89;37.71
66752;SHT31;53663;42.676;23.238;2023-04-24T08:53:46;20.45;39.08
66752;SHT31;53663;42.676;23.238;2023-04-24T08:56:12;20.86;38.88
66752;SHT31;53663;42.676;23.238;2023-04-24T08:58:39;20.85;38.34
66752;SHT31;53663;42.676;23.238;2023-04-24T09:01:04;20.92;37.33
66752;SHT31;53663;42.676;23.238;2023-04-24T09:03:31;21.16;38.65
66752;SHT31;53663;42.676;23.238;2023-04-24T09:05:58;21.12;39.26
66752;SHT31;53663;42.676;23.238;2023-04-24T09:08:25;20.99;37.99
66752;SHT31;53663;42.676;23.238;2023-04-24T09:10:51;21.50;36.65
66752;SHT31;53663;42.676;23.238;2023-04-24T09:13:19;21.23;37.17
66752;SHT31;53663;42.676;23.238;2023-04-24T09:15:44;20.44;38.19
66752;SHT31;53663;42.676;23.238;2023-04-24T09:18:10;20.58;37.62
66752;SHT31;53663;42.676;23.238;2023-04-24T09:21:02;20.71;38.52
66752;SHT31;53663;42.676;23.238;2023-04-24T09:23:30;20.58;37.56
66752;SHT31;53663;42.676;23.238;2023-04-24T09:25:56;20.51;38.78
66752;SHT31;53663;42.676;23.238;2023-04-24T09:28:41;21.06;37.64
66752;SHT31;53663;42.676;23.238;2023-04-24T09:31:14;20.85;37.15
66752;SHT31;53663;42.676;23.238;2023-04-24T09:33:53;21.16;37.25
66752;SHT31;53663;42.676;23.238;2023-04-24T09:36:19;21.75;37.13
66752;SHT31;53663;42.676;23.238;2023-04-24T09:38:44;22.19;36.97
66752;SHT31;53663;42.676;23.238;2023-04-24T09:41:13;22.60;37.96
66752;SHT31;53663;42.676;23.238;2023-04-24T09:43:39;23.10;35.18
66752;SHT31;53663;42.676;23.238;2023-04-24T09:46:07;22.91;35.10
66752;SHT31;53663;42.676;23.238;2023-04-24T09:48:37;22.46;34.37
66752;SHT31;53663;42.676;23.238;2023-04-24T09:51:05;22.78;34.87
66752;SHT31;53663;42.676;23.238;2023-04-24T09:53:37;22.80;33.25
66752;SHT31;53663;42.676;23.238;2023-04-24T09:56:09;22.22;34.85
66752;SHT31;53663;42.676;23.238;2023-04-24T09:58:36;20.81;36.34
66752;SHT31;53663;42.676;23.238;2023-04-24T10:01:02;20.68;36.78
66752;SHT31;53663;42.676;23.238;2023-04-24T10:03:31;21.07;37.54
66752;SHT31;53663;42.676;23.238;2023-04-24T10:06:01;22.06;36.28
66752;SHT31;53663;42.676;23.238;2023-04-24T10:08:34;22.15;35.69
66752;SHT31;53663;42.676;23.238;2023-04-24T10:11:00;21.49;34.28
66752;SHT31;53663;42.676;23.238;2023-04-24T10:32:16;21.82;34.37
66752;SHT31;53663;42.676;23.238;2023-04-24T10:34:42;21.94;34.02
66752;SHT31;53663;42.676;23.238;2023-04-24T10:37:08;22.28;35.78
66752;SHT31;53663;42.676;23.238;2023-04-24T10:39:34;22.35;36.56
66752;SHT31;53663;42.676;23.238;2023-04-24T10:42:00;22.90;32.17
66752;SHT31;53663;42.676;23.238;2023-04-24T10:44:35;21.73;33.97
66752;SHT31;53663;42.676;23.238;2023-04-24T10:47:01;21.31;35.47
66752;SHT31;53663;42.676;23.238;2023-04-24T10:49:31;21.24;34.74
66752;SHT31;53663;42.676;23.238;2023-04-24T10:52:01;21.23;36.09
66752;SHT31;53663;42.676;23.238;2023-04-24T10:59:45;21.19;36.07
66752;SHT31;53663;42.676;23.238;2023-04-24T11:02:14;21.49;35.61
66752;SHT31;53663;42.676;23.238;2023-04-24T11:04:40;20.27;36.79
66752;SHT31;53663;42.676;23.238;2023-04-24T11:07:09;19.96;38.25
66752;SHT31;53663;42.676;23.238;2023-04-24T11:09:36;20.18;38.53
66752;SHT31;53663;42.676;23.238;2023-04-24T11:12:06;20.35;39.75
66752;SHT31;53663;42.676;23.238;2023-04-24T11:17:35;19.73;48.13
66752;SHT31;53663;42.676;23.238;2023-04-24T11:20:07;19.72;51.50
66752;SHT31;53663;42.676;23.238;2023-04-24T11:22:35;19.82;51.49
66752;SHT31;53663;42.676;23.238;2023-04-24T11:25:03;19.04;47.54
66752;SHT31;53663;42.676;23.238;2023-04-24T11:27:31;18.94;50.36
66752;SHT31;53663;42.676;23.238;2023-04-24T11:34:52;17.43;54.87
66752;SHT31;53663;42.676;23.238;2023-04-24T11:37:18;17.01;57.58
66752;SHT31;53663;42.676;23.238;2023-04-24T11:39:43;17.32;59.46
66752;SHT31;53663;42.676;23.238;2023-04-24T11:42:09;17.37;58.21
66752;SHT31;53663;42.676;23.238;2023-04-24T11:44:35;17.11;58.04
66752;SHT31;53663;42.676;23.238;2023-04-24T11:47:08;17.70;62.04
66752;SHT31;53663;42.676;23.238;2023-04-24T11:49:33;17.94;57.06
66752;SHT31;53663;42.676;23.238;2023-04-24T11:52:01;17.33;59.16
66752;SHT31;53663;42.676;23.238;2023-04-24T11:54:27;17.29;55.52
66752;SHT31;53663;42.676;23.238;2023-04-24T11:56:53;17.43;54.48
66752;SHT31;53663;42.676;23.238;2023-04-24T11:59:18;17.69;56.90
66752;SHT31;53663;42.676;23.238;2023-04-24T12:01:47;18.46;55.02
66752;SHT31;53663;42.676;23.238;2023-04-24T12:04:15;19.19;49.36
66752;SHT31;53663;42.676;23.238;2023-04-24T12:07:04;18.76;46.79
66752;SHT31;53663;42.676;23.238;2023-04-24T12:09:46;18.94;47.42
66752;SHT31;53663;42.676;23.238;2023-04-24T12:12:16;19.08;47.98
66752;SHT31;53663;42.676;23.238;2023-04-24T12:14:44;18.94;47.97
66752;SHT31;53663;42.676;23.238;2023-04-24T12:17:09;18.81;48.32
66752;SHT31;53663;42.676;23.238;2023-04-24T12:19:35;18.89;49.76
66752;SHT31;53663;42.676;23.238;2023-04-24T12:22:02;19.35;46.31
66752;SHT31;53663;42.676;23.238;2023-04-24T12:24:29;19.56;46.17
66752;SHT31;53663;42.676;23.238;2023-04-24T12:26:55;20.03;45.13
66752;SHT31;53663;42.676;23.238;2023-04-24T12:29:21;20.55;42.43
66752;SHT31;53663;42.676;23.238;2023-04-24T12:31:47;20.38;41.81
66752;SHT31;53663;42.676;23.238;2023-04-24T12:34:23;19.79;43.86
66752;SHT31;53663;42.676;23.238;2023-04-24T12:36:50;19.65;43.92
66752;SHT31;53663;42.676;23.238;2023-04-24T12:39:19;19.28;42.68
66752;SHT31;53663;42.676;23.238;2023-04-24T12:41:58;19.14;43.64
66752;SHT31;53663;42.676;23.238;2023-04-24T12:44:34;19.28;44.05
66752;SHT31;53663;42.676;23.238;2023-04-24T12:47:00;19.65;43.02
66752;SHT31;53663;42.676;23.238;2023-04-24T12:49:27;20.17;43.36
66752;SHT31;53663;42.676;23.238;2023-04-24T12:51:53;20.13;43.70
66752;SHT31;53663;42.676;23.238;2023-04-24T12:54:19;19.24;43.63
66752;SHT31;53663;42.676;23.238;2023-04-24T12:56:45;19.44;44.80
66752;SHT31;53663;42.676;23.238;2023-04-24T12:59:10;19.28;43.91
66752;SHT31;53663;42.676;23.238;2023-04-24T13:01:36;19.54;44.71
66752;SHT31;53663;42.676;23.238;2023-04-24T13:04:02;19.93;43.07
66752;SHT31;53663;42.676;23.238;2023-04-24T13:06:27;20.38;43.28
66752;SHT31;53663;42.676;23.238;2023-04-24T13:08:53;20.76;41.76
66752;SHT31;53663;42.676;23.238;2023-04-24T13:11:20;19.89;41.01
66752;SHT31;53663;42.676;23.238;2023-04-24T13:13:47;20.14;43.23
66752;SHT31;53663;42.676;23.238;2023-04-24T13:16:12;20.10;42.53
66752;SHT31;53663;42.676;23.238;2023-04-24T13:18:38;20.61;41.16
66752;SHT31;53663;42.676;23.238;2023-04-24T13:21:03;20.86;39.51
66752;SHT31;53663;42.676;23.238;2023-04-24T13:23:29;20.06;40.74
66752;SHT31;53663;42.676;23.238;2023-04-24T13:25:54;20.41;40.21
66752;SHT31;53663;42.676;23.238;2023-04-24T13:28:23;20.76;39.22
66752;SHT31;53663;42.676;23.238;2023-04-24T13:30:50;20.23;38.75
66752;SHT31;53663;42.676;23.238;2023-04-24T13:33:15;20.76;40.25
66752;SHT31;53663;42.676;23.238;2023-04-24T13:35:41;21.27;38.78
66752;SHT31;53663;42.676;23.238;2023-04-24T13:38:06;21.34;37.07
66752;SHT31;53663;42.676;23.238;2023-04-24T13:40:32;21.02;37.13
66752;SHT31;53663;42.676;23.238;2023-04-24T13:42:58;21.13;38.11
66752;SHT31;53663;42.676;23.238;2023-04-24T13:45:23;20.83;38.76
66752;SHT31;53663;42.676;23.238;2023-04-24T13:47:49;20.81;38.14
66752;SHT31;53663;42.676;23.238;2023-04-24T13:50:14;20.65;39.50
66752;SHT31;53663;42.676;23.238;2023-04-24T13:52:40;20.65;38.38
66752;SHT31;53663;42.676;23.238;2023-04-24T13:55:06;21.13;39.59
66752;SHT31;53663;42.676;23.238;2023-04-24T13:57:32;21.54;40.05
66752;SHT31;53663;42.676;23.238;2023-04-24T13:59:58;21.71;38.25
66752;SHT31;53663;42.676;23.238;2023-04-24T14:02:27;20.71;37.68
66752;SHT31;53663;42.676;23.238;2023-04-24T14:04:52;20.75;38.90
66752;SHT31;53663;42.676;23.238;2023-04-24T14:07:18;20.55;38.85
66752;SHT31;53663;42.676;23.238;2023-04-24T14:09:43;20.51;38.33
66752;SHT31;53663;42.676;23.238;2023-04-24T14:12:09;20.35;38.85
66752;SHT31;53663;42.676;23.238;2023-04-24T14:14:34;20.68;37.58
66752;SHT31;53663;42.676;23.238;2023-04-24T14:17:00;20.33;37.93
66752;SHT31;53663;42.676;23.238;2023-04-24T14:19:26;20.64;38.02
66752;SHT31;53663;42.676;23.238;2023-04-24T14:21:51;20.74;38.69
66752;SHT31;53663;42.676;23.238;2023-04-24T14:24:17;20.93;37.48
66752;SHT31;53663;42.676;23.238;2023-04-24T14:26:42;21.10;37.79
66752;SHT31;53663;42.676;23.238;2023-04-24T14:29:08;20.79;36.22
66752;SHT31;53663;42.676;23.238;2023-04-24T14:31:33;20.35;37.05
66752;SHT31;53663;42.676;23.238;2023-04-24T14:33:58;19.97;38.15
66752;SHT31;53663;42.676;23.238;2023-04-24T14:36:24;20.07;38.09
66752;SHT31;53663;42.676;23.238;2023-04-24T14:38:50;20.18;38.46
66752;SHT31;53663;42.676;23.238;2023-04-24T14:41:15;20.09;37.68
66752;SHT31;53663;42.676;23.238;2023-04-24T14:43:41;19.97;38.60
66752;SHT31;53663;42.676;23.238;2023-04-24T14:46:06;20.00;37.47
66752;SHT31;53663;42.676;23.238;2023-04-24T14:48:32;19.70;37.83
66752;SHT31;53663;42.676;23.238;2023-04-24T14:50:58;19.69;38.91
66752;SHT31;53663;42.676;23.238;2023-04-24T14:53:23;19.94;37.79
66752;SHT31;53663;42.676;23.238;2023-04-24T14:55:49;19.69;37.59
66752;SHT31;53663;42.676;23.238;2023-04-24T14:58:15;19.31;44.43
66752;SHT31;53663;42.676;23.238;2023-04-24T15:00:40;19.21;45.15
66752;SHT31;53663;42.676;23.238;2023-04-24T15:03:06;19.00;44.67
66752;SHT31;53663;42.676;23.238;2023-04-24T15:05:32;18.84;45.35
66752;SHT31;53663;42.676;23.238;2023-04-24T15:07:58;19.04;45.91
66752;SHT31;53663;42.676;23.238;2023-04-24T15:10:23;18.79;46.26
66752;SHT31;53663;42.676;23.238;2023-04-24T15:12:50;18.71;45.21
66752;SHT31;53663;42.676;23.238;2023-04-24T15:15:16;18.49;45.55
66752;SHT31;53663;42.676;23.238;2023-04-24T15:17:42;18.35;46.29
66752;SHT31;53663;42.676;23.238;2023-04-24T15:20:07;18.08;47.29
66752;SHT31;53663;42.676;23.238;2023-04-24T15:22:33;18.19;47.17
66752;SHT31;53663;42.676;23.238;2023-04-24T15:24:59;18.46;47.42
66752;SHT31;53663;42.676;23.238;2023-04-24T15:27:24;18.59;47.68
66752;SHT31;53663;42.676;23.238;2023-04-24T15:29:50;18.48;48.61
66752;SHT31;53663;42.676;23.238;2023-04-24T15:32:15;18.52;46.75
66752;SHT31;53663;42.676;23.238;2023-04-24T15:34:41;18.43;48.10
66752;SHT31;53663;42.676;23.238;2023-04-24T15:37:07;18.62;47.62
66752;SHT31;53663;42.676;23.238;2023-04-24T15:39:32;18.55;48.39
66752;SHT31;53663;42.676;23.238;2023-04-24T15:41:59;18.60;48.61
66752;SHT31;53663;42.676;23.238;2023-04-24T15:44:25;18.36;47.85
66752;SHT31;53663;42.676;23.238;2023-04-24T15:46:51;18.22;48.77
66752;SHT31;53663;42.676;23.238;2023-04-24T15:49:17;18.01;49.37
66752;SHT31;53663;42.676;23.238;2023-04-24T15:51:42;17.97;49.51